sensor_id;sensor_type;location;lat;lon;timestamp;temperature;humidity
32502;DHT22;18952;52.516;13.460;2023-12-07T00:00:20;1.00;99.90
32502;DHT22;18952;52.516;13.460;2023-12-07T00:02:46;1.10;99.90
32502;DHT22;18952;52.516;13.460;2023-12-07T00:05:20;1.10;99.90
32502;DHT22;18952;52.516;13.460;2023-12-07T00:07:56;1.10;99.90
32502;DHT22;18952;52.516;13.460;2023-12-07T00:10:25;1.00;99.90
32502;DHT22;18952;52.516;13.460;2023-12-07T00:12:56;1.00;99.90
32502;DHT22;18952;52.516;13.460;2023-12-07T00:15:23;1.00;99.90
32502;DHT22;18952;52.516;13.460;2023-12-07T00:17:50;1.00;99.90
32502;DHT22;18952;52.516;13.460;2023-12-07T00:20:17;1.00;99.90
32502;DHT22;18952;52.516;13.460;2023-12-07T00:22:45;1.10;99.90
32502;DHT22;18952;52.516;13.460;2023-12-07T00:25:12;1.00;99.90
32502;DHT22;18952;52.516;13.460;2023-12-07T00:27:40;1.00;99.90
32502;DHT22;18952;52.516;13.460;2023-12-07T00:30:07;1.00;99.90
32502;DHT22;18952;52.516;13.460;2023-12-07T00:32:35;1.00;99.90
32502;DHT22;18952;52.516;13.460;2023-12-07T00:35:04;1.10;99.90
32502;DHT22;18952;52.516;13.460;2023-12-07T00:37:31;1.00;99.90
32502;DHT22;18952;52.516;13.460;2023-12-07T00:39:59;1.00;99.90
32502;DHT22;18952;52.516;13.460;2023-12-07T00:42:26;1.00;99.90
32502;DHT22;18952;52.516;13.460;2023-12-07T00:44:55;1.00;99.90
32502;DHT22;18952;52.516;13.460;2023-12-07T00:47:22;1.00;99.90
32502;DHT22;18952;52.516;13.460;2023-12-07T00:49:50;1.00;99.90
32502;DHT22;18952;52.516;13.460;2023-12-07T00:52:16;1.00;99.90
32502;DHT22;18952;52.516;13.460;2023-12-07T00:54:48;1.00;99.90
32502;DHT22;18952;52.516;13.460;2023-12-07T00:57:17;1.00;99.90
32502;DHT22;18952;52.516;13.460;2023-12-07T00:59:45;0.90;99.90
32502;DHT22;18952;52.516;13.460;2023-12-07T01:02:13;0.90;99.90
32502;DHT22;18952;52.516;13.460;2023-12-07T01:04:40;1.00;99.90
32502;DHT22;18952;52.516;13.460;2023-12-07T01:07:08;1.00;99.90
32502;DHT22;18952;52.516;13.460;2023-12-07T01:09:35;1.00;99.90
32502;DHT22;18952;52.516;13.460;2023-12-07T01:12:03;1.00;99.90
32502;DHT22;18952;52.516;13.460;2023-12-07T01:14:30;1.10;99.90
32502;DHT22;18952;52.516;13.460;2023-12-07T01:16:58;1.10;99.90
32502;DHT22;18952;52.516;13.460;2023-12-07T01:19:24;1.10;99.90
32502;DHT22;18952;52.516;13.460;2023-12-07T01:21:52;1.10;99.90
32502;DHT22;18952;52.516;13.460;2023-12-07T01:24:19;1.10;99.90
32502;DHT22;18952;52.516;13.460;2023-12-07T01:26:46;1.10;99.90
32502;DHT22;18952;52.516;13.460;2023-12-07T01:29:14;1.10;99.90
32502;DHT22;18952;52.516;13.460;2023-12-07T01:31:41;1.10;99.90
32502;DHT22;18952;52.516;13.460;2023-12-07T01:34:09;1.10;99.90
32502;DHT22;18952;52.516;13.460;2023-12-07T01:36:36;1.00;99.90
32502;DHT22;18952;52.516;13.460;2023-12-07T01:39:05;0.90;99.90
32502;DHT22;18952;52.516;13.460;2023-12-07T01:41:41;1.00;99.90
32502;DHT22;18952;52.516;13.460;2023-12-07T01:44:12;1.00;99.90
32502;DHT22;18952;52.516;13.460;2023-12-07T01:46:48;1.00;99.90
32502;DHT22;18952;52.516;13.460;2023-12-07T01:49:16;1.10;99.90
32502;DHT22;18952;52.516;13.460;2023-12-07T01:51:47;1.10;99.90
32502;DHT22;18952;52.516;13.460;2023-12-07T01:54:13;1.10;99.90
32502;DHT22;18952;52.516;13.460;2023-12-07T01:56:43;1.10;99.90
32502;DHT22;18952;52.516;13.460;2023-12-07T01:59:16;1.00;99.90
32502;DHT22;18952;52.516;13.460;2023-12-07T02:01:43;1.10;99.90
32502;DHT22;18952;52.516;13.460;2023-12-07T02:04:11;1.10;99.90
32502;DHT22;18952;52.516;13.460;2023-12-07T02:06:40;1.10;99.90
32502;DHT22;18952;52.516;13.460;2023-12-07T02:09:08;1.00;99.90
32502;DHT22;18952;52.516;13.460;2023-12-07T02:11:36;1.00;99.90
32502;DHT22;18952;52.516;13.460;2023-12-07T02:14:04;1.00;99.90
32502;DHT22;18952;52.516;13.460;2023-12-07T02:16:36;1.00;99.90
32502;DHT22;18952;52.516;13.460;2023-12-07T02:19:43;1.00;99.90
32502;DHT22;18952;52.516;13.460;2023-12-07T02:22:31;1.00;99.90
32502;DHT22;18952;52.516;13.460;2023-12-07T02:25:11;1.00;99.90
32502;DHT22;18952;52.516;13.460;2023-12-07T02:27:43;0.90;99.90
32502;DHT22;18952;52.516;13.460;2023-12-07T02:30:12;0.90;99.90
32502;DHT22;18952;52.516;13.460;2023-12-07T02:32:40;0.90;99.90
32502;DHT22;18952;52.516;13.460;2023-12-07T02:35:09;0.90;99.90
32502;DHT22;18952;52.516;13.460;2023-12-07T02:37:48;1.00;99.90
32502;DHT22;18952;52.516;13.460;2023-12-07T02:40:22;1.00;99.90
32502;DHT22;18952;52.516;13.460;2023-12-07T02:42:53;0.90;99.90
32502;DHT22;18952;52.516;13.460;2023-12-07T02:45:21;0.90;99.90
32502;DHT22;18952;52.516;13.460;2023-12-07T02:47:49;1.00;99.90
32502;DHT22;18952;52.516;13.460;2023-12-07T02:50:17;1.00;99.90
32502;DHT22;18952;52.516;13.460;2023-12-07T02:52:47;1.00;99.90
32502;DHT22;18952;52.516;13.460;2023-12-07T02:55:13;1.00;99.90
32502;DHT22;18952;52.516;13.460;2023-12-07T02:57:45;1.00;99.90
32502;DHT22;18952;52.516;13.460;2023-12-07T03:00:22;1.00;99.90
32502;DHT22;18952;52.516;13.460;2023-12-07T03:02:50;1.10;99.90
32502;DHT22;18952;52.516;13.460;2023-12-07T03:05:20;1.00;99.90
32502;DHT22;18952;52.516;13.460;2023-12-07T03:07:51;1.00;99.90
32502;DHT22;18952;52.516;13.460;2023-12-07T03:10:21;1.00;99.90
32502;DHT22;18952;52.516;13.460;2023-12-07T03:12:52;1.10;99.90
32502;DHT22;18952;52.516;13.460;2023-12-07T03:15:22;1.20;99.90
32502;DHT22;18952;52.516;13.460;2023-12-07T03:17:50;1.10;99.90
32502;DHT22;18952;52.516;13.460;2023-12-07T03:20:18;1.10;99.90
32502;DHT22;18952;52.516;13.460;2023-12-07T03:22:48;1.10;99.90
32502;DHT22;18952;52.516;13.460;2023-12-07T03:25:15;1.10;99.90
32502;DHT22;18952;52.516;13.460;2023-12-07T03:27:42;1.10;99.90
32502;DHT22;18952;52.516;13.460;2023-12-07T03:30:10;1.20;99.90
32502;DHT22;18952;52.516;13.460;2023-12-07T03:32:37;1.20;99.90
32502;DHT22;18952;52.516;13.460;2023-12-07T03:35:05;1.20;99.90
32502;DHT22;18952;52.516;13.460;2023-12-07T03:37:33;1.20;99.90
32502;DHT22;18952;52.516;13.460;2023-12-07T03:40:02;1.20;99.90
32502;DHT22;18952;52.516;13.460;2023-12-07T03:42:29;1.10;99.90
32502;DHT22;18952;52.516;13.460;2023-12-07T03:45:17;1.10;99.90
32502;DHT22;18952;52.516;13.460;2023-12-07T03:47:43;1.10;99.90
32502;DHT22;18952;52.516;13.460;2023-12-07T03:50:12;1.10;99.90
32502;DHT22;18952;52.516;13.460;2023-12-07T03:52:39;1.00;99.90
32502;DHT22;18952;52.516;13.460;2023-12-07T03:55:07;1.00;99.90
32502;DHT22;18952;52.516;13.460;2023-12-07T03:57:34;1.00;99.90
32502;DHT22;18952;52.516;13.460;2023-12-07T04:00:01;1.00;99.90
32502;DHT22;18952;52.516;13.460;2023-12-07T04:02:32;1.10;99.90
32502;DHT22;18952;52.516;13.460;2023-12-07T04:04:59;1.10;99.90
32502;DHT22;18952;52.516;13.460;2023-12-07T04:07:28;1.10;99.90
32502;DHT22;18952;52.516;13.460;2023-12-07T04:09:54;1.10;99.90
32502;DHT22;18952;52.516;13.460;2023-12-07T04:12:23;1.10;99.90
32502;DHT22;18952;52.516;13.460;2023-12-07T04:14:51;1.10;99.90
32502;DHT22;18952;52.516;13.460;2023-12-07T04:17:19;1.10;99.90
32502;DHT22;18952;52.516;13.460;2023-12-07T04:19:47;1.10;99.90
32502;DHT22;18952;52.516;13.460;2023-12-07T04:22:14;1.10;99.90
32502;DHT22;18952;52.516;13.460;2023-12-07T04:24:42;1.10;99.90
32502;DHT22;18952;52.516;13.460;2023-12-07T04:27:10;1.20;99.90
32502;DHT22;18952;52.516;13.460;2023-12-07T04:29:38;1.20;99.90
32502;DHT22;18952;52.516;13.460;2023-12-07T04:32:07;1.20;99.90
32502;DHT22;18952;52.516;13.460;2023-12-07T04:34:35;1.20;99.90
32502;DHT22;18952;52.516;13.460;2023-12-07T04:37:02;1.20;99.90
32502;DHT22;18952;52.516;13.460;2023-12-07T04:39:30;1.20;99.90
32502;DHT22;18952;52.516;13.460;2023-12-07T04:41:57;1.20;99.90
32502;DHT22;18952;52.516;13.460;2023-12-07T04:44:25;1.20;99.90
32502;DHT22;18952;52.516;13.460;2023-12-07T04:46:52;1.20;99.90
32502;DHT22;18952;52.516;13.460;2023-12-07T04:49:20;1.20;99.90
32502;DHT22;18952;52.516;13.460;2023-12-07T04:51:47;1.10;99.90
32502;DHT22;18952;52.516;13.460;2023-12-07T04:54:14;1.10;99.90
32502;DHT22;18952;52.516;13.460;2023-12-07T04:56:46;1.10;99.90
32502;DHT22;18952;52.516;13.460;2023-12-07T04:59:13;1.10;99.90
32502;DHT22;18952;52.516;13.460;2023-12-07T05:01:41;1.10;99.90
32502;DHT22;18952;52.516;13.460;2023-12-07T05:04:08;1.10;99.90
32502;DHT22;18952;52.516;13.460;2023-12-07T05:06:36;1.10;99.90
32502;DHT22;18952;52.516;13.460;2023-12-07T05:09:04;1.10;99.90
32502;DHT22;18952;52.516;13.460;2023-12-07T05:11:32;1.10;99.90
32502;DHT22;18952;52.516;13.460;2023-12-07T05:14:03;1.10;99.90
32502;DHT22;18952;52.516;13.460;2023-12-07T05:16:31;1.10;99.90
32502;DHT22;18952;52.516;13.460;2023-12-07T05:19:01;1.10;99.90
32502;DHT22;18952;52.516;13.460;2023-12-07T05:21:28;1.00;99.90
32502;DHT22;18952;52.516;13.460;2023-12-07T05:23:56;1.10;99.90
32502;DHT22;18952;52.516;13.460;2023-12-07T05:26:23;1.10;99.90
32502;DHT22;18952;52.516;13.460;2023-12-07T05:28:51;1.10;99.90
32502;DHT22;18952;52.516;13.460;2023-12-07T05:31:18;1.20;99.90
32502;DHT22;18952;52.516;13.460;2023-12-07T05:33:46;1.10;99.90
32502;DHT22;18952;52.516;13.460;2023-12-07T05:36:13;1.10;99.90
32502;DHT22;18952;52.516;13.460;2023-12-07T05:38:40;1.10;99.90
32502;DHT22;18952;52.516;13.460;2023-12-07T05:41:08;1.20;99.90
32502;DHT22;18952;52.516;13.460;2023-12-07T05:43:35;1.20;99.90
32502;DHT22;18952;52.516;13.460;2023-12-07T05:46:03;1.10;99.90
32502;DHT22;18952;52.516;13.460;2023-12-07T05:48:29;1.20;99.90
32502;DHT22;18952;52.516;13.460;2023-12-07T05:50:57;1.10;99.90
32502;DHT22;18952;52.516;13.460;2023-12-07T05:53:30;1.20;99.90
32502;DHT22;18952;52.516;13.460;2023-12-07T05:56:05;1.20;99.90
32502;DHT22;18952;52.516;13.460;2023-12-07T05:58:33;1.20;99.90
32502;DHT22;18952;52.516;13.460;2023-12-07T06:01:02;1.20;99.90
32502;DHT22;18952;52.516;13.460;2023-12-07T06:03:33;1.20;99.90
32502;DHT22;18952;52.516;13.460;2023-12-07T06:05:59;1.20;99.90
32502;DHT22;18952;52.516;13.460;2023-12-07T06:08:27;1.30;99.90
32502;DHT22;18952;52.516;13.460;2023-12-07T06:10:56;1.20;99.90
32502;DHT22;18952;52.516;13.460;2023-12-07T06:13:24;1.30;99.90
32502;DHT22;18952;52.516;13.460;2023-12-07T06:15:52;1.30;99.90
32502;DHT22;18952;52.516;13.460;2023-12-07T06:18:20;1.20;99.90
32502;DHT22;18952;52.516;13.460;2023-12-07T06:20:48;1.20;99.90
32502;DHT22;18952;52.516;13.460;2023-12-07T06:23:16;1.20;99.90
32502;DHT22;18952;52.516;13.460;2023-12-07T06:25:44;1.20;99.90
32502;DHT22;18952;52.516;13.460;2023-12-07T06:28:11;1.20;99.90
32502;DHT22;18952;52.516;13.460;2023-12-07T06:30:39;1.30;99.90
32502;DHT22;18952;52.516;13.460;2023-12-07T06:33:06;1.30;99.90
32502;DHT22;18952;52.516;13.460;2023-12-07T06:35:34;1.30;99.90
32502;DHT22;18952;52.516;13.460;2023-12-07T06:38:02;1.20;99.90
32502;DHT22;18952;52.516;13.460;2023-12-07T06:40:29;1.20;99.90
32502;DHT22;18952;52.516;13.460;2023-12-07T06:42:57;1.20;99.90
32502;DHT22;18952;52.516;13.460;2023-12-07T06:45:29;1.30;99.90
32502;DHT22;18952;52.516;13.460;2023-12-07T06:47:58;1.20;99.90
32502;DHT22;18952;52.516;13.460;2023-12-07T06:50:25;1.20;99.90
32502;DHT22;18952;52.516;13.460;2023-12-07T06:52:53;1.30;99.90
32502;DHT22;18952;52.516;13.460;2023-12-07T06:55:19;1.20;99.90
32502;DHT22;18952;52.516;13.460;2023-12-07T06:57:47;1.20;99.90
32502;DHT22;18952;52.516;13.460;2023-12-07T07:00:14;1.30;99.90
32502;DHT22;18952;52.516;13.460;2023-12-07T07:02:42;1.20;99.90
32502;DHT22;18952;52.516;13.460;2023-12-07T07:05:11;1.20;99.90
32502;DHT22;18952;52.516;13.460;2023-12-07T07:07:39;1.20;99.90
32502;DHT22;18952;52.516;13.460;2023-12-07T07:10:08;1.30;99.90
32502;DHT22;18952;52.516;13.460;2023-12-07T07:12:38;1.30;99.90
32502;DHT22;18952;52.516;13.460;2023-12-07T07:15:09;1.40;99.90
32502;DHT22;18952;52.516;13.460;2023-12-07T07:17:36;1.40;99.90
32502;DHT22;18952;52.516;13.460;2023-12-07T07:20:04;1.40;99.90
32502;DHT22;18952;52.516;13.460;2023-12-07T07:22:31;1.40;99.90
32502;DHT22;18952;52.516;13.460;2023-12-07T07:24:59;1.40;99.90
32502;DHT22;18952;52.516;13.460;2023-12-07T07:27:26;1.40;99.90
32502;DHT22;18952;52.516;13.460;2023-12-07T07:29:54;1.40;99.90
32502;DHT22;18952;52.516;13.460;2023-12-07T07:32:21;1.40;99.90
32502;DHT22;18952;52.516;13.460;2023-12-07T07:34:49;1.40;99.90
32502;DHT22;18952;52.516;13.460;2023-12-07T07:37:17;1.50;99.90
32502;DHT22;18952;52.516;13.460;2023-12-07T07:39:44;1.50;99.90
32502;DHT22;18952;52.516;13.460;2023-12-07T07:42:12;1.40;99.90
32502;DHT22;18952;52.516;13.460;2023-12-07T07:44:40;1.40;99.90
32502;DHT22;18952;52.516;13.460;2023-12-07T07:47:08;1.30;99.90
32502;DHT22;18952;52.516;13.460;2023-12-07T07:49:36;1.30;99.90
32502;DHT22;18952;52.516;13.460;2023-12-07T07:52:04;1.30;99.90
32502;DHT22;18952;52.516;13.460;2023-12-07T07:54:33;1.30;99.90
32502;DHT22;18952;52.516;13.460;2023-12-07T07:57:05;1.30;99.90
32502;DHT22;18952;52.516;13.460;2023-12-07T07:59:32;1.30;99.90
32502;DHT22;18952;52.516;13.460;2023-12-07T08:02:02;1.30;99.90
32502;DHT22;18952;52.516;13.460;2023-12-07T08:04:37;1.30;99.90
32502;DHT22;18952;52.516;13.460;2023-12-07T08:07:06;1.30;99.90
32502;DHT22;18952;52.516;13.460;2023-12-07T08:09:33;1.20;99.90
32502;DHT22;18952;52.516;13.460;2023-12-07T08:12:00;1.20;99.90
32502;DHT22;18952;52.516;13.460;2023-12-07T08:14:27;1.20;99.90
32502;DHT22;18952;52.516;13.460;2023-12-07T08:16:55;1.20;99.90
32502;DHT22;18952;52.516;13.460;2023-12-07T08:19:22;1.10;99.90
32502;DHT22;18952;52.516;13.460;2023-12-07T08:21:50;1.20;99.90
32502;DHT22;18952;52.516;13.460;2023-12-07T08:24:19;1.20;99.90
32502;DHT22;18952;52.516;13.460;2023-12-07T08:26:46;1.30;99.90
32502;DHT22;18952;52.516;13.460;2023-12-07T08:29:14;1.30;99.90
32502;DHT22;18952;52.516;13.460;2023-12-07T08:31:41;1.40;99.90
32502;DHT22;18952;52.516;13.460;2023-12-07T08:34:09;1.40;99.90
32502;DHT22;18952;52.516;13.460;2023-12-07T08:36:37;1.40;99.90
32502;DHT22;18952;52.516;13.460;2023-12-07T08:39:05;1.30;99.90
32502;DHT22;18952;52.516;13.460;2023-12-07T08:41:33;1.30;99.90
32502;DHT22;18952;52.516;13.460;2023-12-07T08:44:01;1.30;99.90
32502;DHT22;18952;52.516;13.460;2023-12-07T08:46:33;1.30;99.90
32502;DHT22;18952;52.516;13.460;2023-12-07T08:48:59;1.40;99.90
32502;DHT22;18952;52.516;13.460;2023-12-07T08:51:28;1.40;99.90
32502;DHT22;18952;52.516;13.460;2023-12-07T08:53:55;1.40;99.90
32502;DHT22;18952;52.516;13.460;2023-12-07T08:56:24;1.40;99.90
32502;DHT22;18952;52.516;13.460;2023-12-07T08:58:51;1.50;99.90
32502;DHT22;18952;52.516;13.460;2023-12-07T09:01:19;1.50;99.90
32502;DHT22;18952;52.516;13.460;2023-12-07T09:03:58;1.40;99.90
32502;DHT22;18952;52.516;13.460;2023-12-07T09:06:26;1.40;99.90
32502;DHT22;18952;52.516;13.460;2023-12-07T09:08:54;1.50;99.90
32502;DHT22;18952;52.516;13.460;2023-12-07T09:11:22;1.50;99.90
32502;DHT22;18952;52.516;13.460;2023-12-07T09:13:51;1.50;99.90
32502;DHT22;18952;52.516;13.460;2023-12-07T09:16:19;1.60;99.90
32502;DHT22;18952;52.516;13.460;2023-12-07T09:18:47;1.60;99.90
32502;DHT22;18952;52.516;13.460;2023-12-07T09:21:14;1.50;99.90
32502;DHT22;18952;52.516;13.460;2023-12-07T09:23:43;1.50;99.90
32502;DHT22;18952;52.516;13.460;2023-12-07T09:26:10;1.50;99.90
32502;DHT22;18952;52.516;13.460;2023-12-07T09:28:38;1.50;99.90
32502;DHT22;18952;52.516;13.460;2023-12-07T09:31:08;1.50;99.90
32502;DHT22;18952;52.516;13.460;2023-12-07T09:33:39;1.50;99.90
32502;DHT22;18952;52.516;13.460;2023-12-07T09:36:06;1.50;99.90
32502;DHT22;18952;52.516;13.460;2023-12-07T09:38:37;1.50;99.90
32502;DHT22;18952;52.516;13.460;2023-12-07T09:41:06;1.50;99.90
32502;DHT22;18952;52.516;13.460;2023-12-07T09:43:34;1.50;99.90
32502;DHT22;18952;52.516;13.460;2023-12-07T09:46:02;1.50;99.90
32502;DHT22;18952;52.516;13.460;2023-12-07T09:48:30;1.50;99.90
32502;DHT22;18952;52.516;13.460;2023-12-07T09:50:59;1.50;99.90
32502;DHT22;18952;52.516;13.460;2023-12-07T09:53:29;1.60;99.90
32502;DHT22;18952;52.516;13.460;2023-12-07T09:55:57;1.50;99.90
32502;DHT22;18952;52.516;13.460;2023-12-07T09:58:24;1.50;99.90
32502;DHT22;18952;52.516;13.460;2023-12-07T10:01:05;1.40;99.90
32502;DHT22;18952;52.516;13.460;2023-12-07T10:03:33;1.50;99.90
32502;DHT22;18952;52.516;13.460;2023-12-07T10:06:02;1.50;99.90
32502;DHT22;18952;52.516;13.460;2023-12-07T10:08:34;1.50;99.90
32502;DHT22;18952;52.516;13.460;2023-12-07T10:11:11;1.60;99.90
32502;DHT22;18952;52.516;13.460;2023-12-07T10:13:39;1.60;99.90
32502;DHT22;18952;52.516;13.460;2023-12-07T10:16:14;1.60;99.90
32502;DHT22;18952;52.516;13.460;2023-12-07T10:18:43;1.60;99.90
32502;DHT22;18952;52.516;13.460;2023-12-07T10:21:13;1.60;99.90
32502;DHT22;18952;52.516;13.460;2023-12-07T10:23:45;1.70;99.90
32502;DHT22;18952;52.516;13.460;2023-12-07T10:26:15;1.60;99.90
32502;DHT22;18952;52.516;13.460;2023-12-07T10:28:43;1.60;99.90
32502;DHT22;18952;52.516;13.460;2023-12-07T10:31:18;1.60;99.90
32502;DHT22;18952;52.516;13.460;2023-12-07T10:33:53;1.60;99.90
32502;DHT22;18952;52.516;13.460;2023-12-07T10:36:24;1.60;99.90
32502;DHT22;18952;52.516;13.460;2023-12-07T10:38:52;1.60;99.90
32502;DHT22;18952;52.516;13.460;2023-12-07T10:41:20;1.60;99.90
32502;DHT22;18952;52.516;13.460;2023-12-07T10:44:04;1.50;99.90
32502;DHT22;18952;52.516;13.460;2023-12-07T10:46:33;1.50;99.90
32502;DHT22;18952;52.516;13.460;2023-12-07T10:49:03;1.60;99.90
32502;DHT22;18952;52.516;13.460;2023-12-07T10:51:34;1.50;99.90
32502;DHT22;18952;52.516;13.460;2023-12-07T10:54:06;1.60;99.90
32502;DHT22;18952;52.516;13.460;2023-12-07T10:56:39;1.60;99.90
32502;DHT22;18952;52.516;13.460;2023-12-07T10:59:12;1.70;99.90
32502;DHT22;18952;52.516;13.460;2023-12-07T11:01:56;1.70;99.90
32502;DHT22;18952;52.516;13.460;2023-12-07T11:04:25;1.70;99.90
32502;DHT22;18952;52.516;13.460;2023-12-07T11:06:57;1.70;99.90
32502;DHT22;18952;52.516;13.460;2023-12-07T11:09:32;1.80;99.90
32502;DHT22;18952;52.516;13.460;2023-12-07T11:12:17;1.80;99.90
32502;DHT22;18952;52.516;13.460;2023-12-07T11:14:47;1.90;99.90
32502;DHT22;18952;52.516;13.460;2023-12-07T11:17:15;1.90;99.90
32502;DHT22;18952;52.516;13.460;2023-12-07T11:19:46;2.00;99.90
32502;DHT22;18952;52.516;13.460;2023-12-07T11:22:15;2.00;99.90
32502;DHT22;18952;52.516;13.460;2023-12-07T11:24:57;2.00;99.90
32502;DHT22;18952;52.516;13.460;2023-12-07T11:27:29;2.10;99.90
32502;DHT22;18952;52.516;13.460;2023-12-07T11:29:59;2.00;99.90
32502;DHT22;18952;52.516;13.460;2023-12-07T11:32:27;2.00;99.90
32502;DHT22;18952;52.516;13.460;2023-12-07T11:35:02;2.00;99.90
32502;DHT22;18952;52.516;13.460;2023-12-07T11:38:04;2.10;99.90
32502;DHT22;18952;52.516;13.460;2023-12-07T11:40:35;2.10;99.90
32502;DHT22;18952;52.516;13.460;2023-12-07T11:43:04;2.10;99.90
32502;DHT22;18952;52.516;13.460;2023-12-07T11:48:15;1.90;99.90
32502;DHT22;18952;52.516;13.460;2023-12-07T11:51:06;1.90;99.90
32502;DHT22;18952;52.516;13.460;2023-12-07T11:53:36;1.90;99.90
32502;DHT22;18952;52.516;13.460;2023-12-07T11:56:10;1.90;99.90
32502;DHT22;18952;52.516;13.460;2023-12-07T11:58:38;1.90;99.90
32502;DHT22;18952;52.516;13.460;2023-12-07T12:01:09;1.90;99.90
32502;DHT22;18952;52.516;13.460;2023-12-07T12:03:37;1.80;99.90
32502;DHT22;18952;52.516;13.460;2023-12-07T12:06:07;1.80;99.90
32502;DHT22;18952;52.516;13.460;2023-12-07T12:08:34;1.90;99.90
32502;DHT22;18952;52.516;13.460;2023-12-07T12:11:03;1.90;99.90
32502;DHT22;18952;52.516;13.460;2023-12-07T12:13:40;1.80;99.90
32502;DHT22;18952;52.516;13.460;2023-12-07T12:16:10;1.80;99.90
32502;DHT22;18952;52.516;13.460;2023-12-07T12:18:45;1.80;99.90
32502;DHT22;18952;52.516;13.460;2023-12-07T12:21:12;1.70;99.90
32502;DHT22;18952;52.516;13.460;2023-12-07T12:23:40;1.80;99.90
32502;DHT22;18952;52.516;13.460;2023-12-07T12:26:09;1.80;99.90
32502;DHT22;18952;52.516;13.460;2023-12-07T12:28:39;1.90;99.90
32502;DHT22;18952;52.516;13.460;2023-12-07T12:31:06;1.90;99.90
32502;DHT22;18952;52.516;13.460;2023-12-07T12:33:37;1.90;99.90
32502;DHT22;18952;52.516;13.460;2023-12-07T12:36:06;1.90;99.90
32502;DHT22;18952;52.516;13.460;2023-12-07T12:38:36;1.90;99.90
32502;DHT22;18952;52.516;13.460;2023-12-07T12:41:11;1.90;99.90
32502;DHT22;18952;52.516;13.460;2023-12-07T12:43:41;1.80;99.90
32502;DHT22;18952;52.516;13.460;2023-12-07T12:46:09;1.90;99.90
32502;DHT22;18952;52.516;13.460;2023-12-07T12:48:38;1.90;99.90
32502;DHT22;18952;52.516;13.460;2023-12-07T12:51:18;1.90;99.90
32502;DHT22;18952;52.516;13.460;2023-12-07T12:53:45;1.90;99.90
32502;DHT22;18952;52.516;13.460;2023-12-07T12:56:19;1.90;99.90
32502;DHT22;18952;52.516;13.460;2023-12-07T12:58:45;1.90;99.90
32502;DHT22;18952;52.516;13.460;2023-12-07T13:01:13;1.90;99.90
32502;DHT22;18952;52.516;13.460;2023-12-07T13:03:41;2.00;99.90
32502;DHT22;18952;52.516;13.460;2023-12-07T13:06:08;1.90;99.90
32502;DHT22;18952;52.516;13.460;2023-12-07T13:08:36;1.90;99.90
32502;DHT22;18952;52.516;13.460;2023-12-07T13:11:04;1.90;99.90
32502;DHT22;18952;52.516;13.460;2023-12-07T13:13:32;1.80;99.90
32502;DHT22;18952;52.516;13.460;2023-12-07T13:15:59;1.90;99.90
32502;DHT22;18952;52.516;13.460;2023-12-07T13:18:27;1.90;99.90
32502;DHT22;18952;52.516;13.460;2023-12-07T13:20:57;1.90;99.90
32502;DHT22;18952;52.516;13.460;2023-12-07T13:23:26;1.90;99.90
32502;DHT22;18952;52.516;13.460;2023-12-07T13:25:54;2.00;99.90
32502;DHT22;18952;52.516;13.460;2023-12-07T13:28:21;2.10;99.90
32502;DHT22;18952;52.516;13.460;2023-12-07T13:30:49;2.10;99.90
32502;DHT22;18952;52.516;13.460;2023-12-07T13:33:16;2.10;99.90
32502;DHT22;18952;52.516;13.460;2023-12-07T13:35:54;2.00;99.90
32502;DHT22;18952;52.516;13.460;2023-12-07T13:38:23;2.00;99.90
32502;DHT22;18952;52.516;13.460;2023-12-07T13:40:51;2.00;99.90
32502;DHT22;18952;52.516;13.460;2023-12-07T13:43:18;2.00;99.90
32502;DHT22;18952;52.516;13.460;2023-12-07T13:45:46;2.00;99.90
32502;DHT22;18952;52.516;13.460;2023-12-07T13:48:13;2.00;99.90
32502;DHT22;18952;52.516;13.460;2023-12-07T13:50:43;2.00;99.90
32502;DHT22;18952;52.516;13.460;2023-12-07T13:53:10;2.00;99.90
32502;DHT22;18952;52.516;13.460;2023-12-07T13:55:41;1.90;99.90
32502;DHT22;18952;52.516;13.460;2023-12-07T13:58:10;1.90;99.90
32502;DHT22;18952;52.516;13.460;2023-12-07T14:00:38;1.90;99.90
32502;DHT22;18952;52.516;13.460;2023-12-07T14:03:08;1.90;99.90
32502;DHT22;18952;52.516;13.460;2023-12-07T14:05:35;1.90;99.90
32502;DHT22;18952;52.516;13.460;2023-12-07T14:08:03;1.80;99.90
32502;DHT22;18952;52.516;13.460;2023-12-07T14:10:30;1.70;99.90
32502;DHT22;18952;52.516;13.460;2023-12-07T14:12:59;1.70;99.90
32502;DHT22;18952;52.516;13.460;2023-12-07T14:15:28;1.80;99.90
32502;DHT22;18952;52.516;13.460;2023-12-07T14:18:12;1.80;99.90
32502;DHT22;18952;52.516;13.460;2023-12-07T14:20:42;1.80;99.90
32502;DHT22;18952;52.516;13.460;2023-12-07T14:23:30;1.80;99.90
32502;DHT22;18952;52.516;13.460;2023-12-07T14:25:58;1.80;99.90
32502;DHT22;18952;52.516;13.460;2023-12-07T14:28:30;1.80;99.90
32502;DHT22;18952;52.516;13.460;2023-12-07T14:30:57;1.90;99.90
32502;DHT22;18952;52.516;13.460;2023-12-07T14:33:25;1.80;99.90
32502;DHT22;18952;52.516;13.460;2023-12-07T14:35:52;1.90;99.90
32502;DHT22;18952;52.516;13.460;2023-12-07T14:38:20;1.90;99.90
32502;DHT22;18952;52.516;13.460;2023-12-07T14:40:49;1.90;99.90
32502;DHT22;18952;52.516;13.460;2023-12-07T14:43:17;2.00;99.90
32502;DHT22;18952;52.516;13.460;2023-12-07T14:45:48;2.00;99.90
32502;DHT22;18952;52.516;13.460;2023-12-07T14:48:15;2.00;99.90
32502;DHT22;18952;52.516;13.460;2023-12-07T14:50:43;2.00;99.90
32502;DHT22;18952;52.516;13.460;2023-12-07T14:53:11;2.10;99.90
32502;DHT22;18952;52.516;13.460;2023-12-07T14:55:38;2.10;99.90
32502;DHT22;18952;52.516;13.460;2023-12-07T14:58:06;2.10;99.90
32502;DHT22;18952;52.516;13.460;2023-12-07T15:00:33;2.20;99.90
32502;DHT22;18952;52.516;13.460;2023-12-07T15:03:03;2.20;99.90
32502;DHT22;18952;52.516;13.460;2023-12-07T15:05:31;2.20;99.90
32502;DHT22;18952;52.516;13.460;2023-12-07T15:07:59;2.10;99.90
32502;DHT22;18952;52.516;13.460;2023-12-07T15:10:27;2.10;99.90
32502;DHT22;18952;52.516;13.460;2023-12-07T15:12:55;2.10;99.90
32502;DHT22;18952;52.516;13.460;2023-12-07T15:15:22;2.10;99.90
32502;DHT22;18952;52.516;13.460;2023-12-07T15:17:50;2.10;99.90
32502;DHT22;18952;52.516;13.460;2023-12-07T15:20:17;2.10;99.90
32502;DHT22;18952;52.516;13.460;2023-12-07T15:22:45;2.20;99.90
32502;DHT22;18952;52.516;13.460;2023-12-07T15:25:12;2.20;99.90
32502;DHT22;18952;52.516;13.460;2023-12-07T15:27:41;2.20;99.90
32502;DHT22;18952;52.516;13.460;2023-12-07T15:30:10;2.10;99.90
32502;DHT22;18952;52.516;13.460;2023-12-07T15:32:38;2.20;99.90
32502;DHT22;18952;52.516;13.460;2023-12-07T15:35:20;2.20;99.90
32502;DHT22;18952;52.516;13.460;2023-12-07T15:37:48;2.20;99.90
32502;DHT22;18952;52.516;13.460;2023-12-07T15:40:17;2.20;99.90
32502;DHT22;18952;52.516;13.460;2023-12-07T15:42:44;2.20;99.90
32502;DHT22;18952;52.516;13.460;2023-12-07T15:45:12;2.20;99.90